Airport View

Enter AWOS ICAO identifier for current METAR.

ex. KFNL

KINW 261156Z AUTO 11006KT 10SM CLR 15/M03 A3009 RMK AO2 SLP115 T01501033 10211 20150 53006

26 Jun 2019 12:51

Frequency: 118.875

Phone: 928-289-0134

Other Area AWOS: KTYL - KFLG - KSEZ - KPAN

TAF KINW 261134Z 2612/2712 VRB05KT P6SM SCT250 FM261800 20012G24KT P6SM FEW250 TEMPO 2620/2624 21016G30KT FM270230 21011KT P6SM SCT250